createdAt,value
2022-10-17T00:01:17.067Z,99.99
2022-10-17T00:11:55.464Z,99.99
2022-10-17T00:17:14.934Z,99.99
2022-10-17T00:22:33.861Z,99.99
2022-10-17T00:27:53.099Z,99.99
2022-10-17T00:33:11.882Z,99.99
2022-10-17T00:41:44.914Z,99.99
2022-10-17T00:43:48.546Z,99.99
2022-10-17T00:50:47.152Z,99.99
2022-10-17T00:54:28.398Z,99.99
2022-10-17T00:59:47.618Z,99.99
2022-10-17T01:05:06.579Z,99.99
2022-10-17T01:10:25.967Z,99.99
2022-10-17T01:15:45.153Z,99.99
2022-10-17T01:21:04.462Z,99.99
2022-10-17T01:26:23.564Z,99.99
2022-10-17T01:31:42.297Z,99.99
2022-10-17T01:37:01.142Z,99.99
2022-10-17T01:42:20.634Z,99.99
2022-10-17T01:47:40.171Z,99.99
2022-10-17T01:52:59.054Z,99.99
2022-10-17T01:58:18.288Z,99.99
2022-10-17T02:03:37.429Z,99.99
2022-10-17T02:08:56.460Z,99.99
2022-10-17T02:14:15.554Z,99.99
2022-10-17T02:19:34.658Z,99.99
2022-10-17T02:24:54.239Z,99.99
2022-10-17T02:30:13.920Z,99.99
2022-10-17T02:35:32.964Z,99.99
2022-10-17T02:40:52.589Z,99.99
2022-10-17T02:46:11.443Z,99.99
2022-10-17T02:51:30.816Z,99.99
2022-10-17T02:56:50.213Z,99.99
2022-10-17T03:02:09.134Z,99.99
2022-10-17T03:07:26.914Z,99.99
2022-10-17T03:12:46.224Z,99.99
2022-10-17T03:18:05.333Z,99.99
2022-10-17T03:23:24.590Z,99.99
2022-10-17T03:28:43.409Z,99.99
2022-10-17T03:34:02.543Z,99.99
2022-10-17T03:39:21.979Z,99.99
2022-10-17T03:44:41.278Z,99.99
2022-10-17T03:50:00.963Z,99.99
2022-10-17T03:55:20.479Z,99.99
2022-10-17T04:00:40.193Z,99.99
2022-10-17T04:05:59.825Z,99.99
2022-10-17T04:11:19.512Z,99.99
2022-10-17T04:16:38.806Z,99.99
2022-10-17T04:21:58.162Z,99.99
2022-10-17T04:27:17.887Z,99.99
2022-10-17T04:32:36.795Z,99.99
2022-10-17T04:39:35.376Z,99.99
2022-10-17T04:43:16.985Z,99.99
2022-10-17T04:51:50.051Z,99.99
2022-10-17T04:53:53.973Z,99.99
2022-10-17T05:00:52.624Z,99.99
2022-10-17T05:09:52.707Z,99.99
2022-10-17T05:15:11.574Z,99.99
2022-10-17T05:20:30.750Z,99.99
2022-10-17T05:25:50.229Z,99.99
2022-10-17T05:31:09.097Z,99.99
2022-10-17T05:36:28.517Z,99.99
2022-10-17T05:45:01.609Z,99.99
2022-10-17T05:49:31.796Z,99.99
2022-10-17T05:52:25.032Z,99.99
2022-10-17T05:57:44.177Z,99.99
2022-10-17T06:03:03.403Z,99.99
2022-10-17T06:08:22.156Z,99.99
2022-10-17T06:13:41.678Z,99.99
2022-10-17T06:19:00.887Z,99.99
2022-10-17T06:24:20.337Z,99.99
2022-10-17T06:29:40.098Z,99.99
2022-10-17T06:36:14.260Z,99.99
2022-10-17T06:40:30.745Z,99.99
2022-10-17T06:45:38.765Z,99.99
2022-10-17T06:50:57.705Z,99.99
2022-10-17T06:56:16.593Z,99.99
2022-10-17T07:01:36.724Z,99.99
2022-10-17T07:06:55.755Z,99.99
2022-10-17T07:12:14.780Z,99.99
2022-10-17T07:17:33.895Z,99.99
2022-10-17T07:22:53.377Z,99.99
2022-10-17T07:28:12.570Z,99.99
2022-10-17T07:33:31.745Z,99.99
2022-10-17T07:38:51.179Z,99.99
2022-10-17T07:44:09.024Z,99.99
2022-10-17T07:49:28.154Z,99.99
2022-10-17T07:56:02.290Z,99.99
2022-10-17T08:00:07.553Z,99.99
2022-10-17T08:08:40.584Z,99.99
2022-10-17T08:16:04.909Z,99.99
2022-10-17T08:21:24.168Z,93.33
2022-10-17T08:29:57.230Z,87.71
2022-10-17T08:32:04.534Z,84.99
2022-10-17T08:42:41.297Z,81.28
2022-10-17T08:48:00.368Z,78.39
2022-10-17T08:53:20.077Z,77.75
2022-10-17T09:02:25.576Z,75.78
2022-10-17T09:03:58.097Z,75.37
2022-10-17T09:09:17.543Z,73.51
2022-10-17T09:14:36.609Z,72.74
2022-10-17T09:19:55.519Z,71.82
2022-10-17T09:25:14.556Z,70.06
2022-10-17T09:30:44.506Z,68.23
2022-10-17T09:35:52.846Z,68.83
2022-10-17T09:41:25.867Z,68.19
2022-10-17T09:46:30.785Z,69.94
2022-10-17T09:51:50.163Z,70.76
2022-10-17T10:00:23.358Z,69.62
2022-10-17T10:04:46.985Z,70.73
2022-10-17T10:13:12.839Z,66.37
2022-10-17T10:18:25.763Z,64.96
2022-10-17T10:23:45.038Z,63.4
2022-10-17T10:29:03.959Z,63.84
2022-10-17T10:34:23.176Z,62.27
2022-10-17T10:39:42.551Z,61.84
2022-10-17T10:45:01.324Z,64.41
2022-10-17T10:50:19.785Z,65.08
2022-10-17T10:55:38.415Z,62.92
2022-10-17T11:00:58.060Z,59.64
2022-10-17T11:06:16.679Z,59.88
2022-10-17T11:11:35.406Z,60.12
2022-10-17T11:18:09.566Z,55.66
2022-10-17T11:22:14.757Z,58.24
2022-10-17T11:27:33.099Z,53.35
2022-10-17T11:32:52.571Z,55.32
2022-10-17T11:39:26.708Z,53.01
2022-10-17T11:43:31.659Z,52.1
2022-10-17T11:48:51.011Z,50.53
2022-10-17T11:54:10.369Z,53.55
2022-10-17T11:59:29.851Z,51.54
2022-10-17T12:04:49.731Z,50.58
2022-10-17T12:10:07.377Z,52.3
2022-10-17T12:15:26.330Z,50.91
2022-10-17T12:20:45.363Z,47.89
2022-10-17T12:26:04.961Z,51.93
2022-10-17T12:31:23.647Z,52.08
2022-10-17T12:36:42.923Z,51.34
2022-10-17T12:43:17.096Z,51.24
2022-10-17T12:47:21.178Z,52.85
2022-10-17T12:53:05.761Z,52.39
2022-10-17T12:58:25.285Z,50.31
2022-10-17T13:03:44.540Z,50.19
2022-10-17T13:09:05.339Z,50.66
2022-10-17T13:14:23.247Z,51.4
2022-10-17T13:19:42.500Z,48.55
2022-10-17T13:25:01.140Z,49.07
2022-10-17T13:30:20.241Z,49.27
2022-10-17T13:35:59.285Z,49.1
2022-10-17T13:41:06.005Z,50
2022-10-17T13:46:36.597Z,50.65
2022-10-17T13:52:53.705Z,49.94
2022-10-17T13:56:58.875Z,49.18
2022-10-17T14:02:17.991Z,50.29
2022-10-17T14:07:51.990Z,52.37
2022-10-17T14:12:56.988Z,52.41
2022-10-17T14:18:16.493Z,53.75
2022-10-17T14:23:35.503Z,52.21
2022-10-17T14:30:09.695Z,53.47
2022-10-17T14:34:25.081Z,55.14
2022-10-17T14:39:33.088Z,55.29
2022-10-17T14:44:51.347Z,55.61
2022-10-17T14:50:10.845Z,55.78
2022-10-17T14:55:31.255Z,56.11
2022-10-17T15:00:50.005Z,57.03
2022-10-17T15:06:08.946Z,56.84
2022-10-17T15:11:27.714Z,57.91
2022-10-17T15:16:46.662Z,55.72
2022-10-17T15:23:20.819Z,57.1
2022-10-17T15:27:26.253Z,57.95
2022-10-17T15:32:45.874Z,59.86
2022-10-17T15:38:04.053Z,61.54
2022-10-17T15:43:23.023Z,63.34
2022-10-17T15:48:41.831Z,65.54
2022-10-17T15:54:00.208Z,64.24
2022-10-17T15:59:19.602Z,66.15
2022-10-17T16:04:38.539Z,65.69
2022-10-17T16:09:57.558Z,66.96
2022-10-17T16:15:17.770Z,69.01
2022-10-17T16:21:51.912Z,70.22
2022-10-17T16:25:56.950Z,71.19
2022-10-17T16:31:14.135Z,71.57
2022-10-17T16:36:33.383Z,71.47
2022-10-17T16:41:53.663Z,72.62
2022-10-17T16:47:11.727Z,74.33
2022-10-17T16:52:31.981Z,75.42
2022-10-17T16:57:50.357Z,75.91
2022-10-17T17:03:09.978Z,76.05
2022-10-17T17:08:29.666Z,76.19
2022-10-17T17:13:48.423Z,76.97
2022-10-17T17:19:08.618Z,78.39
2022-10-17T17:25:42.782Z,80.51
2022-10-17T17:29:47.833Z,82.2
2022-10-17T17:35:06.501Z,83.06
2022-10-17T17:40:25.572Z,84.1
2022-10-17T17:45:44.482Z,84.82
2022-10-17T17:51:03.740Z,85.63
2022-10-17T17:56:22.760Z,86.97
2022-10-17T18:01:41.940Z,88.12
2022-10-17T18:07:01.878Z,89.21
2022-10-17T18:12:20.549Z,89.79
2022-10-17T18:17:39.333Z,90.95
2022-10-17T18:22:59.340Z,91.67
2022-10-17T18:28:17.754Z,92.32
2022-10-17T18:33:38.008Z,91.55
2022-10-17T18:40:12.166Z,91.33
2022-10-17T18:44:16.471Z,90.99
2022-10-17T18:49:35.419Z,91.75
2022-10-17T18:54:54.899Z,91.91
2022-10-17T19:00:14.502Z,91.33
2022-10-17T19:05:33.290Z,90.55
2022-10-17T19:10:51.917Z,90.65
2022-10-17T19:16:10.801Z,91.45
2022-10-17T19:21:29.704Z,92.2
2022-10-17T19:26:49.012Z,93.48
2022-10-17T19:33:23.217Z,94.48
2022-10-17T19:37:29.225Z,95.12
2022-10-17T19:46:02.047Z,95.56
2022-10-17T19:48:06.146Z,95.33
2022-10-17T19:53:25.052Z,94.69
2022-10-17T19:58:44.714Z,94.75
2022-10-17T20:04:03.797Z,95.19
2022-10-17T20:09:23.186Z,95.75
2022-10-17T20:14:42.147Z,95.76
2022-10-17T20:20:02.317Z,95.81
2022-10-17T20:25:19.999Z,96.84
2022-10-17T20:30:39.225Z,97.39
2022-10-17T20:35:58.370Z,97.7
2022-10-17T20:41:17.091Z,97.45
2022-10-17T20:46:39.706Z,97.3
2022-10-17T20:51:56.194Z,97.54
2022-10-17T20:57:15.841Z,97.84
2022-10-17T21:03:50.021Z,98.08
2022-10-17T21:07:55.466Z,98.04
2022-10-17T21:13:14.355Z,98.08
2022-10-17T21:18:33.312Z,98.44
2022-10-17T21:23:52.914Z,98.48
2022-10-17T21:29:11.806Z,98.42
2022-10-17T21:34:30.008Z,98.56
2022-10-17T21:39:48.931Z,98.54
2022-10-17T21:45:10.776Z,98.83
2022-10-17T21:51:41.823Z,98.97
2022-10-17T21:55:47.965Z,99.01
2022-10-17T22:01:06.945Z,99.02
2022-10-17T22:09:39.908Z,99.11
2022-10-17T22:11:44.735Z,99.32
2022-10-17T22:17:04.406Z,99.31
2022-10-17T22:22:22.714Z,99.35
2022-10-17T22:27:42.004Z,99.43
2022-10-17T22:33:01.408Z,99.38
2022-10-17T22:38:20.113Z,99.3
2022-10-17T22:43:39.214Z,99.41
2022-10-17T22:48:58.298Z,99.33
2022-10-17T22:54:17.117Z,99.24
2022-10-17T22:59:36.692Z,99.35
2022-10-17T23:04:55.880Z,99.56
2022-10-17T23:11:54.479Z,99.52
2022-10-17T23:20:54.373Z,99.72
2022-10-17T23:26:13.832Z,99.81
2022-10-17T23:31:32.892Z,99.92
2022-10-17T23:36:51.677Z,99.93
2022-10-17T23:42:10.708Z,99.88
2022-10-17T23:47:30.026Z,99.99
2022-10-17T23:52:49.338Z,99.94
2022-10-17T23:58:08.548Z,99.96
